createdAt,value
2022-12-11T00:01:17.103Z,5.29
2022-12-11T00:03:48.143Z,5.39
2022-12-11T00:06:19.187Z,8.06
2022-12-11T00:08:48.060Z,9.26
2022-12-11T00:11:17.221Z,7.96
2022-12-11T00:13:45.374Z,6.67
2022-12-11T00:16:13.579Z,5.73
2022-12-11T00:18:41.643Z,5.03
2022-12-11T00:21:13.741Z,5.09
2022-12-11T00:23:42.551Z,7.79
2022-12-11T00:26:14.604Z,9.44
2022-12-11T00:28:44.236Z,8.22
2022-12-11T00:31:18.880Z,6.80
2022-12-11T00:33:50.547Z,5.73
2022-12-11T00:36:25.338Z,5.03
2022-12-11T00:38:54.414Z,4.48
2022-12-11T00:41:23.060Z,4.86
2022-12-11T00:43:51.500Z,7.72
2022-12-11T00:46:19.720Z,9.38
2022-12-11T00:48:50.060Z,8.18
2022-12-11T00:51:18.309Z,6.76
2022-12-11T00:53:46.455Z,5.73
2022-12-11T00:56:20.094Z,4.98
2022-12-11T00:58:49.444Z,4.39
2022-12-11T01:01:24.581Z,4.74
2022-12-11T01:03:54.361Z,7.76
2022-12-11T01:06:25.344Z,9.36
2022-12-11T01:09:13.810Z,8.10
2022-12-11T01:11:43.464Z,6.53
2022-12-11T01:14:12.752Z,5.56
2022-12-11T01:16:40.876Z,4.89
2022-12-11T01:19:09.192Z,4.37
2022-12-11T01:21:37.226Z,4.78
2022-12-11T01:24:05.799Z,7.61
2022-12-11T01:26:33.904Z,9.17
2022-12-11T01:29:02.004Z,7.94
2022-12-11T01:31:30.176Z,6.54
2022-12-11T01:33:58.249Z,5.56
2022-12-11T01:36:26.260Z,4.93
2022-12-11T01:38:54.634Z,5.09
2022-12-11T01:41:22.919Z,7.75
2022-12-11T01:44:26.980Z,9.22
2022-12-11T01:46:55.118Z,7.64
2022-12-11T01:49:27.646Z,6.43
2022-12-11T01:52:10.726Z,5.57
2022-12-11T01:54:39.150Z,4.92
2022-12-11T01:57:09.567Z,5.06
2022-12-11T01:59:41.446Z,7.79
2022-12-11T02:02:12.549Z,9.27
2022-12-11T02:04:43.209Z,7.95
2022-12-11T02:07:11.284Z,6.61
2022-12-11T02:09:42.716Z,5.67
2022-12-11T02:12:30.843Z,4.95
2022-12-11T02:15:07.856Z,4.33
2022-12-11T02:17:44.223Z,4.66
2022-12-11T02:20:30.361Z,7.56
2022-12-11T02:23:13.393Z,8.73
2022-12-11T02:25:54.415Z,7.19
2022-12-11T02:28:32.111Z,5.86
2022-12-11T02:31:13.151Z,4.98
2022-12-11T02:33:48.751Z,4.32
2022-12-11T02:36:20.830Z,4.62
2022-12-11T02:38:52.084Z,7.46
2022-12-11T02:41:22.918Z,8.96
2022-12-11T02:43:52.686Z,7.64
2022-12-11T02:46:22.407Z,6.22
2022-12-11T02:48:52.266Z,5.21
2022-12-11T02:51:27.153Z,4.47
2022-12-11T02:53:58.521Z,3.90
2022-12-11T02:56:36.727Z,4.75
2022-12-11T02:59:15.702Z,7.76
2022-12-11T03:01:44.186Z,8.74
2022-12-11T03:04:12.330Z,7.26
2022-12-11T03:06:46.729Z,5.89
2022-12-11T03:09:14.997Z,4.90
2022-12-11T03:11:43.010Z,4.19
2022-12-11T03:14:11.601Z,4.06
2022-12-11T03:16:46.579Z,6.46
2022-12-11T03:19:28.140Z,8.37
2022-12-11T03:22:16.701Z,7.14
2022-12-11T03:25:08.776Z,5.63
2022-12-11T03:27:41.630Z,4.59
2022-12-11T03:30:19.154Z,3.92
2022-12-11T03:32:53.319Z,4.74
2022-12-11T03:35:28.506Z,7.67
2022-12-11T03:38:00.741Z,8.50
2022-12-11T03:40:33.393Z,6.97
2022-12-11T03:43:03.326Z,5.60
2022-12-11T03:45:32.936Z,4.63
2022-12-11T03:48:03.046Z,4.01
2022-12-11T03:50:33.110Z,5.47
2022-12-11T03:53:03.404Z,8.11
2022-12-11T03:55:33.917Z,8.96
2022-12-11T03:58:02.243Z,7.40
2022-12-11T04:00:30.424Z,5.89
2022-12-11T04:03:14.533Z,4.82
2022-12-11T04:05:49.237Z,3.91
2022-12-11T04:08:19.028Z,3.94
2022-12-11T04:10:47.542Z,6.66
2022-12-11T04:13:15.593Z,8.42
2022-12-11T04:15:43.710Z,7.28
2022-12-11T04:18:30.446Z,5.79
2022-12-11T04:21:17.056Z,4.59
2022-12-11T04:24:03.785Z,3.76
2022-12-11T04:26:31.836Z,4.02
2022-12-11T04:28:59.858Z,6.72
2022-12-11T04:31:30.139Z,8.20
2022-12-11T04:33:58.318Z,7.04
2022-12-11T04:36:26.410Z,5.57
2022-12-11T04:38:54.435Z,4.50
2022-12-11T04:41:22.459Z,3.75
2022-12-11T04:43:50.481Z,3.74
2022-12-11T04:46:21.457Z,6.14
2022-12-11T04:48:56.810Z,7.84
2022-12-11T04:51:26.831Z,6.77
2022-12-11T04:53:55.390Z,5.27
2022-12-11T04:56:23.598Z,4.22
2022-12-11T04:58:51.621Z,3.78
2022-12-11T05:01:22.989Z,5.94
2022-12-11T05:03:51.452Z,8.10
2022-12-11T05:06:19.518Z,7.30
2022-12-11T05:08:47.693Z,5.73
2022-12-11T05:11:16.318Z,4.58
2022-12-11T05:13:45.585Z,3.77
2022-12-11T05:16:16.942Z,3.79
2022-12-11T05:18:45.176Z,6.47
2022-12-11T05:21:14.892Z,8.28
2022-12-11T05:23:43.193Z,7.12
2022-12-11T05:26:17.198Z,5.56
2022-12-11T05:28:46.434Z,4.37
2022-12-11T05:31:17.918Z,3.56
2022-12-11T05:33:47.938Z,4.12
2022-12-11T05:36:31.825Z,6.96
2022-12-11T05:39:01.125Z,8.30
2022-12-11T05:41:32.661Z,6.84
2022-12-11T05:44:00.893Z,5.26
2022-12-11T05:46:30.985Z,4.15
2022-12-11T05:49:01.312Z,4.39
2022-12-11T05:51:30.397Z,7.01
2022-12-11T05:53:58.637Z,7.95
2022-12-11T05:56:29.719Z,6.55
2022-12-11T05:58:59.412Z,5.11
2022-12-11T06:01:36.837Z,4.05
2022-12-11T06:04:06.881Z,3.27
2022-12-11T06:06:35.080Z,4.49
2022-12-11T06:09:04.722Z,7.14
2022-12-11T06:11:34.117Z,8.33
2022-12-11T06:14:03.744Z,6.94
2022-12-11T06:16:32.504Z,5.29
2022-12-11T06:19:00.657Z,4.18
2022-12-11T06:21:31.825Z,3.40
2022-12-11T06:24:02.822Z,3.62
2022-12-11T06:26:32.223Z,6.21
2022-12-11T06:29:00.355Z,7.86
2022-12-11T06:31:28.468Z,6.69
2022-12-11T06:33:56.595Z,5.18
2022-12-11T06:36:25.320Z,4.09
2022-12-11T06:38:55.489Z,3.31
2022-12-11T06:41:23.560Z,3.36
2022-12-11T06:43:51.659Z,5.80
2022-12-11T06:46:20.906Z,7.45
2022-12-11T06:48:49.821Z,6.37
2022-12-11T06:51:21.696Z,4.89
2022-12-11T06:53:54.428Z,3.79
2022-12-11T06:56:23.810Z,3.01
2022-12-11T06:58:52.483Z,3.12
2022-12-11T07:01:24.924Z,5.60
2022-12-11T07:03:58.647Z,7.49
2022-12-11T07:06:28.811Z,6.41
2022-12-11T07:08:57.154Z,4.93
2022-12-11T07:11:25.209Z,3.85
2022-12-11T07:13:53.184Z,3.21
2022-12-11T07:16:21.701Z,4.91
2022-12-11T07:18:51.402Z,7.14
2022-12-11T07:21:20.990Z,7.17
2022-12-11T07:23:50.477Z,5.68
2022-12-11T07:26:21.073Z,4.31
2022-12-11T07:28:49.470Z,3.29
2022-12-11T07:31:24.052Z,2.74
2022-12-11T07:34:05.414Z,4.42
2022-12-11T07:36:34.575Z,7.05
2022-12-11T07:39:02.634Z,7.10
2022-12-11T07:41:31.937Z,5.28
2022-12-11T07:44:01.472Z,3.85
2022-12-11T07:46:32.222Z,3.84
2022-12-11T07:49:01.095Z,6.37
2022-12-11T07:51:31.718Z,7.33
2022-12-11T07:54:13.084Z,6.04
2022-12-11T07:56:43.892Z,4.44
2022-12-11T07:59:12.813Z,3.46
2022-12-11T08:01:42.737Z,4.82
2022-12-11T08:04:15.607Z,6.92
2022-12-11T08:06:43.919Z,7.11
2022-12-11T08:09:20.936Z,5.56
2022-12-11T08:11:50.961Z,4.03
2022-12-11T08:14:19.693Z,3.23
2022-12-11T08:16:49.049Z,4.59
2022-12-11T08:19:18.065Z,6.80
2022-12-11T08:21:46.956Z,6.88
2022-12-11T08:24:20.354Z,5.31
2022-12-11T08:26:49.200Z,3.93
2022-12-11T08:29:17.659Z,3.05
2022-12-11T08:31:45.707Z,3.24
2022-12-11T08:34:14.371Z,5.42
2022-12-11T08:36:42.718Z,7.19
2022-12-11T08:39:10.725Z,6.86
2022-12-11T08:41:38.894Z,5.36
2022-12-11T08:44:16.275Z,4.01
2022-12-11T08:46:46.807Z,3.06
2022-12-11T08:49:14.896Z,4.01
2022-12-11T08:51:42.954Z,6.42
2022-12-11T08:54:11.846Z,7.46
2022-12-11T08:56:39.886Z,6.12
2022-12-11T08:59:08.045Z,4.66
2022-12-11T09:01:36.180Z,3.59
2022-12-11T09:04:04.330Z,2.87
2022-12-11T09:06:33.221Z,2.90
2022-12-11T09:09:01.772Z,5.30
2022-12-11T09:11:33.434Z,7.33
2022-12-11T09:14:07.216Z,7.23
2022-12-11T09:16:40.745Z,5.39
2022-12-11T09:19:14.269Z,4.03
2022-12-11T09:21:43.939Z,3.12
2022-12-11T09:24:13.399Z,3.05
2022-12-11T09:26:41.889Z,5.32
2022-12-11T09:29:12.361Z,7.25
2022-12-11T09:31:40.945Z,7.08
2022-12-11T09:34:12.736Z,5.35
2022-12-11T09:36:41.749Z,4.01
2022-12-11T09:39:12.705Z,3.15
2022-12-11T09:41:48.003Z,3.20
2022-12-11T09:44:37.689Z,6.01
2022-12-11T09:47:20.810Z,8.01
2022-12-11T09:49:58.252Z,6.83
2022-12-11T09:52:32.723Z,5.08
2022-12-11T09:55:12.148Z,3.91
2022-12-11T09:57:46.804Z,3.06
2022-12-11T10:00:27.621Z,3.32
2022-12-11T10:03:20.434Z,6.24
2022-12-11T10:06:33.070Z,7.55
2022-12-11T10:09:06.429Z,5.80
2022-12-11T10:11:56.871Z,4.38
2022-12-11T10:14:59.531Z,4.20
2022-12-11T10:17:37.176Z,6.74
2022-12-11T10:20:35.344Z,6.08
2022-12-11T10:23:08.102Z,4.29
2022-12-11T10:25:40.408Z,3.26
2022-12-11T10:28:17.439Z,2.56
2022-12-11T10:31:11.555Z,2.68
2022-12-11T10:33:42.274Z,5.79
2022-12-11T10:36:10.807Z,7.38
2022-12-11T10:38:43.614Z,5.99
2022-12-11T10:41:17.534Z,4.49
2022-12-11T10:43:48.539Z,3.45
2022-12-11T10:46:23.304Z,2.73
2022-12-11T10:48:57.102Z,2.72
2022-12-11T10:51:30.911Z,5.40
2022-12-11T10:54:31.509Z,7.52
2022-12-11T10:57:02.386Z,6.62
2022-12-11T10:59:47.719Z,5.12
2022-12-11T11:02:38.909Z,4.02
2022-12-11T11:05:29.765Z,3.25
2022-12-11T11:08:22.671Z,2.78
2022-12-11T11:10:57.047Z,5.08
2022-12-11T11:13:30.301Z,7.65
2022-12-11T11:16:12.611Z,7.07
2022-12-11T11:18:43.541Z,5.53
2022-12-11T11:21:19.998Z,4.46
2022-12-11T11:23:53.277Z,3.58
2022-12-11T11:26:23.229Z,4.29
2022-12-11T11:28:55.748Z,7.05
2022-12-11T11:31:35.505Z,7.74
2022-12-11T11:34:08.436Z,6.22
2022-12-11T11:36:38.589Z,4.86
2022-12-11T11:39:20.613Z,3.96
2022-12-11T11:41:57.501Z,3.32
2022-12-11T11:44:34.879Z,2.82
2022-12-11T11:47:14.134Z,2.58
2022-12-11T11:49:56.008Z,4.96
2022-12-11T11:52:45.600Z,7.56
2022-12-11T11:55:35.586Z,6.65
2022-12-11T11:58:23.134Z,5.03
2022-12-11T12:00:54.861Z,3.97
2022-12-11T12:03:25.492Z,3.26
2022-12-11T12:06:15.115Z,2.76
2022-12-11T12:09:16.702Z,3.51
2022-12-11T12:12:03.637Z,6.98
2022-12-11T12:15:13.998Z,7.10
2022-12-11T12:17:56.321Z,5.14
2022-12-11T12:20:36.770Z,3.94
2022-12-11T12:23:37.311Z,3.13
2022-12-11T12:26:21.675Z,2.54
2022-12-11T12:28:57.959Z,4.39
2022-12-11T12:31:28.930Z,7.08
2022-12-11T12:34:15.125Z,6.85
2022-12-11T12:37:29.115Z,5.26
2022-12-11T12:40:14.888Z,3.93
2022-12-11T12:43:01.192Z,3.18
2022-12-11T12:45:53.440Z,2.58
2022-12-11T12:48:25.079Z,3.18
2022-12-11T12:50:53.579Z,5.88
2022-12-11T12:53:26.031Z,7.44
2022-12-11T12:55:55.232Z,6.18
2022-12-11T12:58:28.721Z,4.69
2022-12-11T13:01:17.626Z,3.59
2022-12-11T13:04:02.481Z,2.76
2022-12-11T13:06:33.090Z,2.15
2022-12-11T13:09:30.493Z,2.79
2022-12-11T13:11:58.557Z,6.15
2022-12-11T13:14:32.721Z,6.53
2022-12-11T13:17:21.914Z,5.01
2022-12-11T13:19:57.636Z,3.62
2022-12-11T13:22:25.708Z,2.77
2022-12-11T13:24:53.696Z,2.17
2022-12-11T13:27:43.794Z,2.03
2022-12-11T13:30:14.552Z,4.91
2022-12-11T13:33:01.035Z,6.51
2022-12-11T13:35:30.663Z,5.15
2022-12-11T13:38:06.386Z,3.80
2022-12-11T13:40:40.372Z,2.83
2022-12-11T13:43:25.277Z,2.15
2022-12-11T13:45:57.900Z,1.63
2022-12-11T13:48:39.458Z,1.80
2022-12-11T13:51:07.520Z,4.93
2022-12-11T13:53:35.530Z,6.27
2022-12-11T13:56:06.812Z,4.98
2022-12-11T13:58:38.157Z,3.64
2022-12-11T14:01:14.686Z,2.74
2022-12-11T14:03:55.601Z,2.09
2022-12-11T14:06:26.450Z,1.59
2022-12-11T14:08:57.981Z,1.21
2022-12-11T14:11:30.203Z,0.89
2022-12-11T14:14:01.495Z,1.38
2022-12-11T14:16:30.689Z,4.38
2022-12-11T14:19:05.438Z,6.49
2022-12-11T14:21:34.241Z,5.50
2022-12-11T14:24:05.309Z,4.05
2022-12-11T14:26:38.024Z,3.00
2022-12-11T14:29:07.300Z,2.28
2022-12-11T14:31:41.099Z,1.76
2022-12-11T14:34:16.581Z,1.37
2022-12-11T14:36:48.146Z,2.93
2022-12-11T14:39:36.753Z,5.84
2022-12-11T14:42:10.812Z,5.67
2022-12-11T14:45:16.259Z,4.22
2022-12-11T14:47:45.092Z,2.96
2022-12-11T14:50:28.459Z,2.30
2022-12-11T14:53:02.887Z,1.74
2022-12-11T14:55:36.054Z,1.82
2022-12-11T14:58:29.231Z,4.39
2022-12-11T15:00:57.219Z,6.38
2022-12-11T15:03:33.671Z,5.15
2022-12-11T15:06:03.528Z,3.67
2022-12-11T15:08:35.301Z,2.70
2022-12-11T15:11:03.406Z,2.02
2022-12-11T15:13:33.266Z,1.53
2022-12-11T15:16:02.023Z,1.13
2022-12-11T15:18:33.878Z,0.85
2022-12-11T15:21:04.292Z,2.31
2022-12-11T15:23:34.836Z,5.22
2022-12-11T15:26:03.263Z,6.07
2022-12-11T15:28:37.373Z,4.72
2022-12-11T15:31:25.544Z,3.44
2022-12-11T15:33:54.026Z,2.50
2022-12-11T15:36:32.517Z,2.09
2022-12-11T15:39:02.948Z,4.15
2022-12-11T15:41:34.818Z,6.15
2022-12-11T15:44:04.660Z,5.17
2022-12-11T15:46:36.685Z,3.81
2022-12-11T15:49:12.972Z,2.81
2022-12-11T15:51:43.357Z,2.10
2022-12-11T15:54:11.696Z,1.57
2022-12-11T15:56:40.148Z,1.83
2022-12-11T15:59:08.228Z,4.63
2022-12-11T16:01:36.447Z,6.57
2022-12-11T16:04:05.337Z,5.45
2022-12-11T16:06:34.493Z,3.99
2022-12-11T16:09:05.219Z,2.96
2022-12-11T16:11:33.327Z,2.24
2022-12-11T16:14:04.524Z,2.86
2022-12-11T16:16:32.641Z,5.60
2022-12-11T16:19:00.985Z,6.68
2022-12-11T16:21:29.046Z,5.27
2022-12-11T16:23:57.111Z,3.84
2022-12-11T16:26:25.612Z,2.86
2022-12-11T16:28:53.667Z,2.19
2022-12-11T16:31:21.978Z,2.15
2022-12-11T16:33:50.115Z,4.56
2022-12-11T16:36:19.706Z,6.50
2022-12-11T16:38:53.586Z,5.43
2022-12-11T16:41:23.381Z,3.94
2022-12-11T16:43:51.664Z,2.95
2022-12-11T16:46:21.349Z,2.27
2022-12-11T16:48:50.055Z,1.75
2022-12-11T16:51:18.153Z,1.38
2022-12-11T16:53:46.791Z,2.73
2022-12-11T16:56:14.885Z,5.45
2022-12-11T16:58:43.063Z,6.75
2022-12-11T17:01:15.492Z,5.55
2022-12-11T17:03:44.577Z,4.11
2022-12-11T17:06:17.665Z,3.09
2022-12-11T17:08:46.913Z,2.38
2022-12-11T17:11:18.682Z,2.54
2022-12-11T17:13:46.772Z,5.17
2022-12-11T17:16:16.746Z,6.55
2022-12-11T17:18:44.945Z,5.42
2022-12-11T17:21:15.717Z,4.01
2022-12-11T17:23:45.241Z,2.98
2022-12-11T17:26:13.689Z,2.29
2022-12-11T17:28:41.727Z,1.77
2022-12-11T17:31:13.674Z,1.45
2022-12-11T17:33:42.495Z,3.26
2022-12-11T17:36:14.087Z,6.11
2022-12-11T17:38:42.172Z,6.27
2022-12-11T17:41:19.824Z,4.70
2022-12-11T17:43:50.795Z,3.41
2022-12-11T17:46:20.154Z,2.56
2022-12-11T17:48:49.309Z,1.95
2022-12-11T17:51:28.159Z,1.49
2022-12-11T17:54:05.327Z,1.80
2022-12-11T17:56:35.024Z,4.19
2022-12-11T17:59:03.412Z,6.48
2022-12-11T18:01:31.564Z,6.11
2022-12-11T18:04:01.994Z,4.52
2022-12-11T18:06:30.886Z,3.27
2022-12-11T18:08:58.896Z,2.36
2022-12-11T18:11:27.015Z,1.73
2022-12-11T18:13:55.498Z,2.20
2022-12-11T18:16:32.608Z,4.76
2022-12-11T18:19:01.809Z,6.19
2022-12-11T18:21:33.881Z,4.76
2022-12-11T18:24:03.016Z,3.35
2022-12-11T18:26:31.436Z,2.35
2022-12-11T18:28:59.487Z,2.02
2022-12-11T18:31:27.495Z,4.29
2022-12-11T18:33:56.355Z,6.32
2022-12-11T18:36:24.396Z,5.65
2022-12-11T18:38:52.576Z,4.04
2022-12-11T18:41:20.716Z,2.83
2022-12-11T18:43:48.911Z,1.92
2022-12-11T18:46:19.137Z,2.90
2022-12-11T18:48:48.546Z,5.60
2022-12-11T18:51:22.689Z,6.10
2022-12-11T18:53:51.705Z,4.41
2022-12-11T18:56:21.133Z,2.97
2022-12-11T18:58:52.255Z,1.92
2022-12-11T19:01:29.122Z,2.21
2022-12-11T19:04:03.583Z,4.80
2022-12-11T19:06:35.784Z,6.26
2022-12-11T19:09:06.064Z,4.68
2022-12-11T19:11:35.652Z,3.11
2022-12-11T19:14:05.354Z,2.05
2022-12-11T19:16:37.518Z,3.38
2022-12-11T19:19:12.659Z,5.54
2022-12-11T19:21:41.701Z,5.36
2022-12-11T19:24:15.305Z,3.69
2022-12-11T19:26:43.517Z,2.43
2022-12-11T19:29:20.310Z,1.58
2022-12-11T19:31:48.553Z,1.55
2022-12-11T19:34:17.052Z,3.91
2022-12-11T19:36:45.238Z,5.90
2022-12-11T19:39:14.629Z,5.39
2022-12-11T19:41:43.001Z,3.74
2022-12-11T19:44:12.087Z,2.49
2022-12-11T19:46:40.444Z,1.65
2022-12-11T19:49:08.594Z,1.16
2022-12-11T19:51:38.986Z,2.82
2022-12-11T19:54:09.986Z,5.50
2022-12-11T19:56:38.420Z,5.54
2022-12-11T19:59:09.065Z,4.09
2022-12-11T20:01:38.304Z,2.78
2022-12-11T20:04:12.876Z,1.80
2022-12-11T20:06:43.443Z,1.76
2022-12-11T20:09:13.289Z,4.25
2022-12-11T20:11:43.924Z,5.65
2022-12-11T20:14:26.405Z,4.49
2022-12-11T20:17:13.759Z,2.92
2022-12-11T20:19:43.284Z,1.78
2022-12-11T20:22:11.901Z,2.54
2022-12-11T20:24:40.746Z,5.35
2022-12-11T20:27:10.236Z,6.43
2022-12-11T20:29:39.113Z,4.89
2022-12-11T20:32:07.752Z,3.38
2022-12-11T20:34:35.921Z,2.26
2022-12-11T20:37:04.019Z,1.48
2022-12-11T20:39:32.182Z,2.06
2022-12-11T20:42:01.317Z,4.88
2022-12-11T20:44:29.365Z,5.88
2022-12-11T20:46:57.450Z,4.42
2022-12-11T20:49:25.621Z,3.04
2022-12-11T20:51:54.080Z,1.97
2022-12-11T20:54:22.111Z,1.28
2022-12-11T20:56:51.524Z,1.80
2022-12-11T20:59:19.634Z,4.79
2022-12-11T21:01:47.711Z,6.09
2022-12-11T21:04:15.869Z,4.98
2022-12-11T21:06:43.912Z,3.54
2022-12-11T21:09:19.511Z,2.36
2022-12-11T21:11:48.384Z,2.37
2022-12-11T21:14:17.925Z,5.02
2022-12-11T21:16:46.676Z,5.61
2022-12-11T21:19:17.800Z,4.21
2022-12-11T21:21:46.436Z,2.77
2022-12-11T21:24:18.795Z,1.88
2022-12-11T21:26:48.123Z,1.25
2022-12-11T21:29:17.001Z,0.80
2022-12-11T21:31:45.317Z,1.51
2022-12-11T21:34:14.257Z,4.51
2022-12-11T21:36:42.655Z,6.31
2022-12-11T21:39:12.452Z,5.19
2022-12-11T21:41:41.877Z,3.66
2022-12-11T21:46:59.631Z,1.59
2022-12-11T21:49:27.748Z,2.75
2022-12-11T21:51:56.157Z,5.40
2022-12-11T21:54:24.254Z,5.30
2022-12-11T21:56:52.318Z,3.69
2022-12-11T21:59:20.644Z,2.39
2022-12-11T22:01:48.636Z,3.39
2022-12-11T22:04:16.942Z,5.69
2022-12-11T22:06:47.362Z,5.33
2022-12-11T22:09:17.907Z,3.68
2022-12-11T22:11:46.963Z,2.32
2022-12-11T22:14:17.103Z,2.19
2022-12-11T22:16:45.814Z,5.03
2022-12-11T22:19:14.040Z,6.09
2022-12-11T22:21:42.574Z,4.70
2022-12-11T22:24:10.641Z,3.32
2022-12-11T22:26:39.208Z,2.25
2022-12-11T22:29:07.258Z,1.55
2022-12-11T22:31:35.312Z,2.81
2022-12-11T22:34:03.334Z,5.32
2022-12-11T22:36:31.367Z,5.60
2022-12-11T22:39:00.581Z,4.00
2022-12-11T22:41:31.428Z,2.58
2022-12-11T22:44:00.011Z,2.11
2022-12-11T22:46:30.196Z,4.36
2022-12-11T22:48:59.000Z,5.83
2022-12-11T22:51:27.189Z,4.31
2022-12-11T22:53:55.243Z,2.88
2022-12-11T22:56:23.332Z,1.80
2022-12-11T22:58:51.429Z,1.12
2022-12-11T23:01:24.901Z,2.48
2022-12-11T23:03:53.403Z,5.34
2022-12-11T23:06:25.042Z,5.87
2022-12-11T23:08:56.983Z,4.18
2022-12-11T23:11:31.417Z,2.66
2022-12-11T23:13:59.451Z,1.59
2022-12-11T23:16:27.691Z,2.81
2022-12-11T23:18:57.697Z,4.92
2022-12-11T23:21:28.095Z,4.17
2022-12-11T23:23:57.849Z,2.82
2022-12-11T23:26:27.496Z,1.79
2022-12-11T23:28:56.996Z,1.06
2022-12-11T23:31:25.893Z,1.92
2022-12-11T23:33:54.380Z,4.86
2022-12-11T23:36:23.072Z,6.13
2022-12-11T23:38:54.803Z,4.52
2022-12-11T23:41:23.730Z,2.96
2022-12-11T23:43:52.427Z,1.91
2022-12-11T23:46:22.946Z,1.41
2022-12-11T23:48:52.455Z,3.52
2022-12-11T23:51:23.191Z,4.80
2022-12-11T23:53:52.538Z,3.66
2022-12-11T23:56:25.024Z,2.35
2022-12-11T23:58:53.846Z,1.76
